sensor_id;sensor_type;location;lat;lon;timestamp;P1;durP1;ratioP1;P2;durP2;ratioP2
48881;SDS011;57063;51.406;-2.402;2023-08-07T00:01:30;4.03;;;1.80;;
48881;SDS011;57063;51.406;-2.402;2023-08-07T00:04:00;5.25;;;1.52;;
48881;SDS011;57063;51.406;-2.402;2023-08-07T00:06:26;6.22;;;2.00;;
48881;SDS011;57063;51.406;-2.402;2023-08-07T00:08:51;5.15;;;1.52;;
48881;SDS011;57063;51.406;-2.402;2023-08-07T00:11:17;2.38;;;1.80;;
48881;SDS011;57063;51.406;-2.402;2023-08-07T00:13:43;4.38;;;1.83;;
48881;SDS011;57063;51.406;-2.402;2023-08-07T00:16:08;5.57;;;1.50;;
48881;SDS011;57063;51.406;-2.402;2023-08-07T00:18:35;3.70;;;1.35;;
48881;SDS011;57063;51.406;-2.402;2023-08-07T00:21:07;6.60;;;2.10;;
48881;SDS011;57063;51.406;-2.402;2023-08-07T00:23:33;3.25;;;1.50;;
48881;SDS011;57063;51.406;-2.402;2023-08-07T00:26:01;5.97;;;1.80;;
48881;SDS011;57063;51.406;-2.402;2023-08-07T00:28:30;4.05;;;1.73;;
48881;SDS011;57063;51.406;-2.402;2023-08-07T00:33:32;5.45;;;1.75;;
48881;SDS011;57063;51.406;-2.402;2023-08-07T00:55:02;4.30;;;2.00;;
48881;SDS011;57063;51.406;-2.402;2023-08-07T00:57:29;4.63;;;2.15;;
48881;SDS011;57063;51.406;-2.402;2023-08-07T00:59:59;6.30;;;2.22;;
48881;SDS011;57063;51.406;-2.402;2023-08-07T01:02:28;5.22;;;2.08;;
48881;SDS011;57063;51.406;-2.402;2023-08-07T01:04:53;3.45;;;1.60;;
48881;SDS011;57063;51.406;-2.402;2023-08-07T01:07:19;9.32;;;2.40;;
48881;SDS011;57063;51.406;-2.402;2023-08-07T01:09:45;7.97;;;2.58;;
48881;SDS011;57063;51.406;-2.402;2023-08-07T01:14:42;7.10;;;1.75;;
48881;SDS011;57063;51.406;-2.402;2023-08-07T01:17:23;3.40;;;1.60;;
48881;SDS011;57063;51.406;-2.402;2023-08-07T01:19:51;8.85;;;2.10;;
48881;SDS011;57063;51.406;-2.402;2023-08-07T01:22:18;7.65;;;1.80;;
48881;SDS011;57063;51.406;-2.402;2023-08-07T01:24:45;6.00;;;1.98;;
48881;SDS011;57063;51.406;-2.402;2023-08-07T01:30:11;10.48;;;2.17;;
48881;SDS011;57063;51.406;-2.402;2023-08-07T01:33:10;5.38;;;1.80;;
48881;SDS011;57063;51.406;-2.402;2023-08-07T01:35:43;14.57;;;2.45;;
48881;SDS011;57063;51.406;-2.402;2023-08-07T01:38:11;4.78;;;2.00;;
48881;SDS011;57063;51.406;-2.402;2023-08-07T01:40:38;7.50;;;1.98;;
48881;SDS011;57063;51.406;-2.402;2023-08-07T01:43:05;5.07;;;1.60;;
48881;SDS011;57063;51.406;-2.402;2023-08-07T01:45:32;3.67;;;1.80;;
48881;SDS011;57063;51.406;-2.402;2023-08-07T01:48:00;4.20;;;1.27;;
48881;SDS011;57063;51.406;-2.402;2023-08-07T01:50:26;3.72;;;1.70;;
48881;SDS011;57063;51.406;-2.402;2023-08-07T01:52:52;3.72;;;1.52;;
48881;SDS011;57063;51.406;-2.402;2023-08-07T01:55:18;4.47;;;1.70;;
48881;SDS011;57063;51.406;-2.402;2023-08-07T01:57:45;4.63;;;1.60;;
48881;SDS011;57063;51.406;-2.402;2023-08-07T02:00:11;5.85;;;1.50;;
48881;SDS011;57063;51.406;-2.402;2023-08-07T02:02:37;3.47;;;1.73;;
48881;SDS011;57063;51.406;-2.402;2023-08-07T02:05:03;8.68;;;1.92;;
48881;SDS011;57063;51.406;-2.402;2023-08-07T02:07:29;6.88;;;1.77;;
48881;SDS011;57063;51.406;-2.402;2023-08-07T02:12:30;4.47;;;2.25;;
48881;SDS011;57063;51.406;-2.402;2023-08-07T02:15:01;6.53;;;2.22;;
48881;SDS011;57063;51.406;-2.402;2023-08-07T02:17:49;6.63;;;2.20;;
48881;SDS011;57063;51.406;-2.402;2023-08-07T02:20:18;8.20;;;2.80;;
48881;SDS011;57063;51.406;-2.402;2023-08-07T02:23:17;5.70;;;2.42;;
48881;SDS011;57063;51.406;-2.402;2023-08-07T02:31:11;8.70;;;2.95;;
48881;SDS011;57063;51.406;-2.402;2023-08-07T02:41:22;6.93;;;3.15;;
48881;SDS011;57063;51.406;-2.402;2023-08-07T02:43:49;6.88;;;2.38;;
48881;SDS011;57063;51.406;-2.402;2023-08-07T02:46:16;5.03;;;2.00;;
48881;SDS011;57063;51.406;-2.402;2023-08-07T02:48:43;7.55;;;2.22;;
48881;SDS011;57063;51.406;-2.402;2023-08-07T02:51:09;10.05;;;2.83;;
48881;SDS011;57063;51.406;-2.402;2023-08-07T02:53:34;8.68;;;2.55;;
48881;SDS011;57063;51.406;-2.402;2023-08-07T02:56:00;6.45;;;2.45;;
48881;SDS011;57063;51.406;-2.402;2023-08-07T02:58:25;7.75;;;2.60;;
48881;SDS011;57063;51.406;-2.402;2023-08-07T03:00:51;6.72;;;2.25;;
48881;SDS011;57063;51.406;-2.402;2023-08-07T03:03:16;7.43;;;2.70;;
48881;SDS011;57063;51.406;-2.402;2023-08-07T03:05:49;8.52;;;2.50;;
48881;SDS011;57063;51.406;-2.402;2023-08-07T03:08:15;6.75;;;2.38;;
48881;SDS011;57063;51.406;-2.402;2023-08-07T03:10:41;5.75;;;2.30;;
48881;SDS011;57063;51.406;-2.402;2023-08-07T03:13:06;7.47;;;2.17;;
48881;SDS011;57063;51.406;-2.402;2023-08-07T03:15:31;9.60;;;2.80;;
48881;SDS011;57063;51.406;-2.402;2023-08-07T03:17:57;9.00;;;2.72;;
48881;SDS011;57063;51.406;-2.402;2023-08-07T03:20:22;10.23;;;2.70;;
48881;SDS011;57063;51.406;-2.402;2023-08-07T03:22:48;4.70;;;1.90;;
48881;SDS011;57063;51.406;-2.402;2023-08-07T03:25:13;7.53;;;1.90;;
48881;SDS011;57063;51.406;-2.402;2023-08-07T03:27:38;7.47;;;2.10;;
48881;SDS011;57063;51.406;-2.402;2023-08-07T03:30:04;4.72;;;2.20;;
48881;SDS011;57063;51.406;-2.402;2023-08-07T03:32:30;3.38;;;1.63;;
48881;SDS011;57063;51.406;-2.402;2023-08-07T03:34:55;5.88;;;2.15;;
48881;SDS011;57063;51.406;-2.402;2023-08-07T03:37:21;5.25;;;1.85;;
48881;SDS011;57063;51.406;-2.402;2023-08-07T03:39:46;5.32;;;1.45;;
48881;SDS011;57063;51.406;-2.402;2023-08-07T03:42:13;3.50;;;1.50;;
48881;SDS011;57063;51.406;-2.402;2023-08-07T03:44:40;3.35;;;1.40;;
48881;SDS011;57063;51.406;-2.402;2023-08-07T03:47:05;5.10;;;1.70;;
48881;SDS011;57063;51.406;-2.402;2023-08-07T03:49:31;5.57;;;1.50;;
48881;SDS011;57063;51.406;-2.402;2023-08-07T03:51:56;5.20;;;1.45;;
48881;SDS011;57063;51.406;-2.402;2023-08-07T03:54:24;3.50;;;1.45;;
48881;SDS011;57063;51.406;-2.402;2023-08-07T03:56:49;6.45;;;1.40;;
48881;SDS011;57063;51.406;-2.402;2023-08-07T03:59:16;4.07;;;1.83;;
48881;SDS011;57063;51.406;-2.402;2023-08-07T04:01:41;3.10;;;1.40;;
48881;SDS011;57063;51.406;-2.402;2023-08-07T04:04:07;3.83;;;1.45;;
48881;SDS011;57063;51.406;-2.402;2023-08-07T04:06:32;6.53;;;2.00;;
48881;SDS011;57063;51.406;-2.402;2023-08-07T04:08:58;5.20;;;1.75;;
48881;SDS011;57063;51.406;-2.402;2023-08-07T04:11:24;6.00;;;1.52;;
48881;SDS011;57063;51.406;-2.402;2023-08-07T04:13:49;5.10;;;1.63;;
48881;SDS011;57063;51.406;-2.402;2023-08-07T04:21:33;4.15;;;1.70;;
48881;SDS011;57063;51.406;-2.402;2023-08-07T04:24:19;5.68;;;2.03;;
48881;SDS011;57063;51.406;-2.402;2023-08-07T04:26:45;2.00;;;1.40;;
48881;SDS011;57063;51.406;-2.402;2023-08-07T04:29:14;3.85;;;1.50;;
48881;SDS011;57063;51.406;-2.402;2023-08-07T04:31:45;2.63;;;1.30;;
48881;SDS011;57063;51.406;-2.402;2023-08-07T04:34:12;4.07;;;1.65;;
48881;SDS011;57063;51.406;-2.402;2023-08-07T04:36:49;2.90;;;1.35;;
48881;SDS011;57063;51.406;-2.402;2023-08-07T04:39:37;2.65;;;1.50;;
48881;SDS011;57063;51.406;-2.402;2023-08-07T04:42:06;3.33;;;1.50;;
48881;SDS011;57063;51.406;-2.402;2023-08-07T04:44:31;9.05;;;2.72;;
48881;SDS011;57063;51.406;-2.402;2023-08-07T04:46:57;2.45;;;1.40;;
48881;SDS011;57063;51.406;-2.402;2023-08-07T04:49:22;4.30;;;1.67;;
48881;SDS011;57063;51.406;-2.402;2023-08-07T04:51:48;2.67;;;1.17;;
48881;SDS011;57063;51.406;-2.402;2023-08-07T04:54:13;3.28;;;1.30;;
48881;SDS011;57063;51.406;-2.402;2023-08-07T04:56:38;3.22;;;1.38;;
48881;SDS011;57063;51.406;-2.402;2023-08-07T04:59:04;3.92;;;1.50;;
48881;SDS011;57063;51.406;-2.402;2023-08-07T05:01:29;4.55;;;1.58;;
48881;SDS011;57063;51.406;-2.402;2023-08-07T05:03:54;3.67;;;1.60;;
48881;SDS011;57063;51.406;-2.402;2023-08-07T05:06:20;3.22;;;1.35;;
48881;SDS011;57063;51.406;-2.402;2023-08-07T05:08:45;2.85;;;1.45;;
48881;SDS011;57063;51.406;-2.402;2023-08-07T05:11:10;3.92;;;1.30;;
48881;SDS011;57063;51.406;-2.402;2023-08-07T05:13:36;3.28;;;1.45;;
48881;SDS011;57063;51.406;-2.402;2023-08-07T05:16:01;2.95;;;1.40;;
48881;SDS011;57063;51.406;-2.402;2023-08-07T05:18:27;2.45;;;1.17;;
48881;SDS011;57063;51.406;-2.402;2023-08-07T05:20:52;4.55;;;1.30;;
48881;SDS011;57063;51.406;-2.402;2023-08-07T05:23:20;2.78;;;1.55;;
48881;SDS011;57063;51.406;-2.402;2023-08-07T05:25:46;4.47;;;2.00;;
48881;SDS011;57063;51.406;-2.402;2023-08-07T05:28:13;3.78;;;1.33;;
48881;SDS011;57063;51.406;-2.402;2023-08-07T05:30:38;4.55;;;2.03;;
48881;SDS011;57063;51.406;-2.402;2023-08-07T05:33:04;3.35;;;1.70;;
48881;SDS011;57063;51.406;-2.402;2023-08-07T05:35:29;6.28;;;2.30;;
48881;SDS011;57063;51.406;-2.402;2023-08-07T05:37:55;4.15;;;1.75;;
48881;SDS011;57063;51.406;-2.402;2023-08-07T05:40:20;3.03;;;1.55;;
48881;SDS011;57063;51.406;-2.402;2023-08-07T05:42:45;7.78;;;2.00;;
48881;SDS011;57063;51.406;-2.402;2023-08-07T05:45:11;6.15;;;1.88;;
48881;SDS011;57063;51.406;-2.402;2023-08-07T05:47:37;4.75;;;1.75;;
48881;SDS011;57063;51.406;-2.402;2023-08-07T05:50:10;3.08;;;1.63;;
48881;SDS011;57063;51.406;-2.402;2023-08-07T05:52:38;5.38;;;1.88;;
48881;SDS011;57063;51.406;-2.402;2023-08-07T05:55:03;3.95;;;1.52;;
48881;SDS011;57063;51.406;-2.402;2023-08-07T05:57:29;3.55;;;1.83;;
48881;SDS011;57063;51.406;-2.402;2023-08-07T05:59:55;7.95;;;1.75;;
48881;SDS011;57063;51.406;-2.402;2023-08-07T06:10:06;4.28;;;1.85;;
48881;SDS011;57063;51.406;-2.402;2023-08-07T07:20:29;4.10;;;1.40;;
48881;SDS011;57063;51.406;-2.402;2023-08-07T07:22:58;3.50;;;0.90;;
48881;SDS011;57063;51.406;-2.402;2023-08-07T07:25:24;2.60;;;0.88;;
48881;SDS011;57063;51.406;-2.402;2023-08-07T07:36:13;3.30;;;0.82;;
48881;SDS011;57063;51.406;-2.402;2023-08-07T07:38:47;5.00;;;1.38;;
48881;SDS011;57063;51.406;-2.402;2023-08-07T07:46:19;2.50;;;1.03;;
48881;SDS011;57063;51.406;-2.402;2023-08-07T07:48:51;3.75;;;1.27;;
48881;SDS011;57063;51.406;-2.402;2023-08-07T07:51:41;4.88;;;1.35;;
48881;SDS011;57063;51.406;-2.402;2023-08-07T07:54:14;1.73;;;0.70;;
48881;SDS011;57063;51.406;-2.402;2023-08-07T07:56:42;3.65;;;1.00;;
48881;SDS011;57063;51.406;-2.402;2023-08-07T07:59:08;6.68;;;1.08;;
48881;SDS011;57063;51.406;-2.402;2023-08-07T08:01:34;2.78;;;1.10;;
48881;SDS011;57063;51.406;-2.402;2023-08-07T08:04:00;5.97;;;1.67;;
48881;SDS011;57063;51.406;-2.402;2023-08-07T08:06:26;4.47;;;1.10;;
48881;SDS011;57063;51.406;-2.402;2023-08-07T08:08:55;4.95;;;1.58;;
48881;SDS011;57063;51.406;-2.402;2023-08-07T08:20:26;4.07;;;0.82;;
48881;SDS011;57063;51.406;-2.402;2023-08-07T08:22:52;1.77;;;0.80;;
48881;SDS011;57063;51.406;-2.402;2023-08-07T08:25:17;3.85;;;1.10;;
48881;SDS011;57063;51.406;-2.402;2023-08-07T08:27:43;2.55;;;0.88;;
48881;SDS011;57063;51.406;-2.402;2023-08-07T08:40:38;5.83;;;1.23;;
48881;SDS011;57063;51.406;-2.402;2023-08-07T08:53:28;3.22;;;0.90;;
48881;SDS011;57063;51.406;-2.402;2023-08-07T09:01:04;2.53;;;0.60;;
48881;SDS011;57063;51.406;-2.402;2023-08-07T09:13:53;3.35;;;0.52;;
48881;SDS011;57063;51.406;-2.402;2023-08-07T09:16:21;2.28;;;0.60;;
48881;SDS011;57063;51.406;-2.402;2023-08-07T09:18:50;3.90;;;0.70;;
48881;SDS011;57063;51.406;-2.402;2023-08-07T09:21:16;1.83;;;0.30;;
48881;SDS011;57063;51.406;-2.402;2023-08-07T09:23:42;4.07;;;1.33;;
48881;SDS011;57063;51.406;-2.402;2023-08-07T09:26:08;3.50;;;0.90;;
48881;SDS011;57063;51.406;-2.402;2023-08-07T09:28:37;4.18;;;0.47;;
48881;SDS011;57063;51.406;-2.402;2023-08-07T09:31:05;2.80;;;0.68;;
48881;SDS011;57063;51.406;-2.402;2023-08-07T09:33:31;6.60;;;0.60;;
48881;SDS011;57063;51.406;-2.402;2023-08-07T09:35:57;4.47;;;0.77;;
48881;SDS011;57063;51.406;-2.402;2023-08-07T09:38:24;1.88;;;0.65;;
48881;SDS011;57063;51.406;-2.402;2023-08-07T09:40:57;2.65;;;0.40;;
48881;SDS011;57063;51.406;-2.402;2023-08-07T09:43:25;1.67;;;0.57;;
48881;SDS011;57063;51.406;-2.402;2023-08-07T09:45:59;3.45;;;0.75;;
48881;SDS011;57063;51.406;-2.402;2023-08-07T09:48:27;3.08;;;0.50;;
48881;SDS011;57063;51.406;-2.402;2023-08-07T09:50:53;2.95;;;0.43;;
48881;SDS011;57063;51.406;-2.402;2023-08-07T09:53:24;2.10;;;0.60;;
48881;SDS011;57063;51.406;-2.402;2023-08-07T09:55:52;1.80;;;0.75;;
48881;SDS011;57063;51.406;-2.402;2023-08-07T09:58:21;6.00;;;2.50;;
48881;SDS011;57063;51.406;-2.402;2023-08-07T10:00:48;2.22;;;0.82;;
48881;SDS011;57063;51.406;-2.402;2023-08-07T10:03:13;3.13;;;1.00;;
48881;SDS011;57063;51.406;-2.402;2023-08-07T10:05:39;3.10;;;0.70;;
48881;SDS011;57063;51.406;-2.402;2023-08-07T10:08:07;5.32;;;0.68;;
48881;SDS011;57063;51.406;-2.402;2023-08-07T10:10:32;3.22;;;0.73;;
48881;SDS011;57063;51.406;-2.402;2023-08-07T10:13:00;2.72;;;0.80;;
48881;SDS011;57063;51.406;-2.402;2023-08-07T10:15:26;3.45;;;0.50;;
48881;SDS011;57063;51.406;-2.402;2023-08-07T10:17:52;5.20;;;0.95;;
48881;SDS011;57063;51.406;-2.402;2023-08-07T10:20:18;5.30;;;0.80;;
48881;SDS011;57063;51.406;-2.402;2023-08-07T10:22:45;2.60;;;0.85;;
48881;SDS011;57063;51.406;-2.402;2023-08-07T10:25:11;2.08;;;0.73;;
48881;SDS011;57063;51.406;-2.402;2023-08-07T10:27:37;3.53;;;0.93;;
48881;SDS011;57063;51.406;-2.402;2023-08-07T10:30:06;2.08;;;0.68;;
48881;SDS011;57063;51.406;-2.402;2023-08-07T10:32:34;2.05;;;0.75;;
48881;SDS011;57063;51.406;-2.402;2023-08-07T10:35:04;5.57;;;1.05;;
48881;SDS011;57063;51.406;-2.402;2023-08-07T10:37:40;2.80;;;0.63;;
48881;SDS011;57063;51.406;-2.402;2023-08-07T10:40:07;2.95;;;0.65;;
48881;SDS011;57063;51.406;-2.402;2023-08-07T10:45:20;2.20;;;0.73;;
48881;SDS011;57063;51.406;-2.402;2023-08-07T10:50:33;3.30;;;0.70;;
48881;SDS011;57063;51.406;-2.402;2023-08-07T10:53:40;3.08;;;0.60;;
48881;SDS011;57063;51.406;-2.402;2023-08-07T10:56:09;2.60;;;0.55;;
48881;SDS011;57063;51.406;-2.402;2023-08-07T10:58:36;2.38;;;0.65;;
48881;SDS011;57063;51.406;-2.402;2023-08-07T11:01:16;2.40;;;0.60;;
48881;SDS011;57063;51.406;-2.402;2023-08-07T11:03:49;2.88;;;0.95;;
48881;SDS011;57063;51.406;-2.402;2023-08-07T11:06:22;6.38;;;0.65;;
48881;SDS011;57063;51.406;-2.402;2023-08-07T11:08:51;2.92;;;0.90;;
48881;SDS011;57063;51.406;-2.402;2023-08-07T11:11:17;3.25;;;0.73;;
48881;SDS011;57063;51.406;-2.402;2023-08-07T11:13:48;2.75;;;1.33;;
48881;SDS011;57063;51.406;-2.402;2023-08-07T11:16:13;2.28;;;0.75;;
48881;SDS011;57063;51.406;-2.402;2023-08-07T11:18:45;4.22;;;0.77;;
48881;SDS011;57063;51.406;-2.402;2023-08-07T11:21:16;3.45;;;0.55;;
48881;SDS011;57063;51.406;-2.402;2023-08-07T11:23:46;2.28;;;0.98;;
48881;SDS011;57063;51.406;-2.402;2023-08-07T11:26:17;3.20;;;0.93;;
48881;SDS011;57063;51.406;-2.402;2023-08-07T11:28:49;2.58;;;0.80;;
48881;SDS011;57063;51.406;-2.402;2023-08-07T11:31:14;3.90;;;0.80;;
48881;SDS011;57063;51.406;-2.402;2023-08-07T11:33:40;2.42;;;0.70;;
48881;SDS011;57063;51.406;-2.402;2023-08-07T11:36:12;2.72;;;0.82;;
48881;SDS011;57063;51.406;-2.402;2023-08-07T11:38:39;3.20;;;0.57;;
48881;SDS011;57063;51.406;-2.402;2023-08-07T11:41:11;2.75;;;0.52;;
48881;SDS011;57063;51.406;-2.402;2023-08-07T11:43:38;3.00;;;0.90;;
48881;SDS011;57063;51.406;-2.402;2023-08-07T11:46:09;2.83;;;1.05;;
48881;SDS011;57063;51.406;-2.402;2023-08-07T11:48:37;1.93;;;0.43;;
48881;SDS011;57063;51.406;-2.402;2023-08-07T11:51:19;3.30;;;0.52;;
48881;SDS011;57063;51.406;-2.402;2023-08-07T11:53:45;2.03;;;0.70;;
48881;SDS011;57063;51.406;-2.402;2023-08-07T11:56:13;2.60;;;0.77;;
48881;SDS011;57063;51.406;-2.402;2023-08-07T11:58:43;5.70;;;1.08;;
48881;SDS011;57063;51.406;-2.402;2023-08-07T12:01:13;2.63;;;0.77;;
48881;SDS011;57063;51.406;-2.402;2023-08-07T12:06:25;3.65;;;0.80;;
48881;SDS011;57063;51.406;-2.402;2023-08-07T12:08:53;4.63;;;0.93;;
48881;SDS011;57063;51.406;-2.402;2023-08-07T12:11:20;2.75;;;0.77;;
48881;SDS011;57063;51.406;-2.402;2023-08-07T12:13:52;3.92;;;1.00;;
48881;SDS011;57063;51.406;-2.402;2023-08-07T12:16:19;3.45;;;0.60;;
48881;SDS011;57063;51.406;-2.402;2023-08-07T12:18:44;4.75;;;1.30;;
48881;SDS011;57063;51.406;-2.402;2023-08-07T12:21:11;4.60;;;0.98;;
48881;SDS011;57063;51.406;-2.402;2023-08-07T12:23:39;1.70;;;0.40;;
48881;SDS011;57063;51.406;-2.402;2023-08-07T12:26:05;4.65;;;0.80;;
48881;SDS011;57063;51.406;-2.402;2023-08-07T12:28:32;4.75;;;0.82;;
48881;SDS011;57063;51.406;-2.402;2023-08-07T12:30:58;2.92;;;1.08;;
48881;SDS011;57063;51.406;-2.402;2023-08-07T12:33:23;4.57;;;1.48;;
48881;SDS011;57063;51.406;-2.402;2023-08-07T12:35:49;4.13;;;0.77;;
48881;SDS011;57063;51.406;-2.402;2023-08-07T12:38:14;5.05;;;0.90;;
48881;SDS011;57063;51.406;-2.402;2023-08-07T12:40:40;4.05;;;0.68;;
48881;SDS011;57063;51.406;-2.402;2023-08-07T12:43:06;4.80;;;0.60;;
48881;SDS011;57063;51.406;-2.402;2023-08-07T12:45:32;3.42;;;0.70;;
48881;SDS011;57063;51.406;-2.402;2023-08-07T12:47:58;2.92;;;0.70;;
48881;SDS011;57063;51.406;-2.402;2023-08-07T12:50:24;2.88;;;0.60;;
48881;SDS011;57063;51.406;-2.402;2023-08-07T12:52:50;1.98;;;0.80;;
48881;SDS011;57063;51.406;-2.402;2023-08-07T12:55:15;7.85;;;0.77;;
48881;SDS011;57063;51.406;-2.402;2023-08-07T12:57:41;2.20;;;0.60;;
48881;SDS011;57063;51.406;-2.402;2023-08-07T13:00:10;3.40;;;0.68;;
48881;SDS011;57063;51.406;-2.402;2023-08-07T13:02:42;2.55;;;0.60;;
48881;SDS011;57063;51.406;-2.402;2023-08-07T13:05:12;3.42;;;0.95;;
48881;SDS011;57063;51.406;-2.402;2023-08-07T13:07:39;2.03;;;0.50;;
48881;SDS011;57063;51.406;-2.402;2023-08-07T13:10:05;4.40;;;0.77;;
48881;SDS011;57063;51.406;-2.402;2023-08-07T13:12:35;3.13;;;1.17;;
48881;SDS011;57063;51.406;-2.402;2023-08-07T13:15:01;2.38;;;0.60;;
48881;SDS011;57063;51.406;-2.402;2023-08-07T13:17:27;2.13;;;0.55;;
48881;SDS011;57063;51.406;-2.402;2023-08-07T13:19:53;3.08;;;0.70;;
48881;SDS011;57063;51.406;-2.402;2023-08-07T13:22:18;2.97;;;0.75;;
48881;SDS011;57063;51.406;-2.402;2023-08-07T13:24:44;2.22;;;0.65;;
48881;SDS011;57063;51.406;-2.402;2023-08-07T13:27:09;2.25;;;0.82;;
48881;SDS011;57063;51.406;-2.402;2023-08-07T13:29:34;1.80;;;0.50;;
48881;SDS011;57063;51.406;-2.402;2023-08-07T13:32:00;2.75;;;0.63;;
48881;SDS011;57063;51.406;-2.402;2023-08-07T13:34:28;2.42;;;0.50;;
48881;SDS011;57063;51.406;-2.402;2023-08-07T13:36:54;4.68;;;0.73;;
48881;SDS011;57063;51.406;-2.402;2023-08-07T13:39:19;2.33;;;0.40;;
48881;SDS011;57063;51.406;-2.402;2023-08-07T13:41:44;2.40;;;0.63;;
48881;SDS011;57063;51.406;-2.402;2023-08-07T13:44:10;6.13;;;0.80;;
48881;SDS011;57063;51.406;-2.402;2023-08-07T13:46:36;4.53;;;1.00;;
48881;SDS011;57063;51.406;-2.402;2023-08-07T13:49:02;2.03;;;0.93;;
48881;SDS011;57063;51.406;-2.402;2023-08-07T13:51:27;5.15;;;0.70;;
48881;SDS011;57063;51.406;-2.402;2023-08-07T13:53:53;2.65;;;0.68;;
48881;SDS011;57063;51.406;-2.402;2023-08-07T13:56:18;2.75;;;0.43;;
48881;SDS011;57063;51.406;-2.402;2023-08-07T13:58:43;3.25;;;0.52;;
48881;SDS011;57063;51.406;-2.402;2023-08-07T14:01:09;3.00;;;0.75;;
48881;SDS011;57063;51.406;-2.402;2023-08-07T14:03:34;1.73;;;0.65;;
48881;SDS011;57063;51.406;-2.402;2023-08-07T14:06:00;2.88;;;0.93;;
48881;SDS011;57063;51.406;-2.402;2023-08-07T14:08:26;2.20;;;0.68;;
48881;SDS011;57063;51.406;-2.402;2023-08-07T14:10:51;2.80;;;0.60;;
48881;SDS011;57063;51.406;-2.402;2023-08-07T14:13:17;2.67;;;0.73;;
48881;SDS011;57063;51.406;-2.402;2023-08-07T14:15:42;2.17;;;0.63;;
48881;SDS011;57063;51.406;-2.402;2023-08-07T14:18:07;2.40;;;0.68;;
48881;SDS011;57063;51.406;-2.402;2023-08-07T14:20:34;2.85;;;0.60;;
48881;SDS011;57063;51.406;-2.402;2023-08-07T14:23:00;3.13;;;0.70;;
48881;SDS011;57063;51.406;-2.402;2023-08-07T14:25:25;3.30;;;0.73;;
48881;SDS011;57063;51.406;-2.402;2023-08-07T14:27:50;4.93;;;0.63;;
48881;SDS011;57063;51.406;-2.402;2023-08-07T14:30:16;1.85;;;0.60;;
48881;SDS011;57063;51.406;-2.402;2023-08-07T14:32:41;2.97;;;0.50;;
48881;SDS011;57063;51.406;-2.402;2023-08-07T14:35:12;1.70;;;0.88;;
48881;SDS011;57063;51.406;-2.402;2023-08-07T14:37:39;2.38;;;0.75;;
48881;SDS011;57063;51.406;-2.402;2023-08-07T14:40:05;3.42;;;0.50;;
48881;SDS011;57063;51.406;-2.402;2023-08-07T14:42:31;8.80;;;1.05;;
48881;SDS011;57063;51.406;-2.402;2023-08-07T14:44:57;2.83;;;0.70;;
48881;SDS011;57063;51.406;-2.402;2023-08-07T14:47:23;3.28;;;0.85;;
48881;SDS011;57063;51.406;-2.402;2023-08-07T14:49:48;2.95;;;0.70;;
48881;SDS011;57063;51.406;-2.402;2023-08-07T14:52:14;7.95;;;2.17;;
48881;SDS011;57063;51.406;-2.402;2023-08-07T14:54:39;2.42;;;0.85;;
48881;SDS011;57063;51.406;-2.402;2023-08-07T14:57:05;2.60;;;0.70;;
48881;SDS011;57063;51.406;-2.402;2023-08-07T14:59:30;1.42;;;0.35;;
48881;SDS011;57063;51.406;-2.402;2023-08-07T15:01:55;2.10;;;0.73;;
48881;SDS011;57063;51.406;-2.402;2023-08-07T15:04:21;2.65;;;0.63;;
48881;SDS011;57063;51.406;-2.402;2023-08-07T15:06:46;3.78;;;0.68;;
48881;SDS011;57063;51.406;-2.402;2023-08-07T15:09:13;4.22;;;0.40;;
48881;SDS011;57063;51.406;-2.402;2023-08-07T15:11:39;2.75;;;0.50;;
48881;SDS011;57063;51.406;-2.402;2023-08-07T15:14:04;6.30;;;1.15;;
48881;SDS011;57063;51.406;-2.402;2023-08-07T15:16:30;3.72;;;1.60;;
48881;SDS011;57063;51.406;-2.402;2023-08-07T15:18:56;3.35;;;0.70;;
48881;SDS011;57063;51.406;-2.402;2023-08-07T15:21:22;4.32;;;0.80;;
48881;SDS011;57063;51.406;-2.402;2023-08-07T15:23:47;3.33;;;0.73;;
48881;SDS011;57063;51.406;-2.402;2023-08-07T15:26:13;3.63;;;0.60;;
48881;SDS011;57063;51.406;-2.402;2023-08-07T15:28:38;4.50;;;0.90;;
48881;SDS011;57063;51.406;-2.402;2023-08-07T15:31:04;3.47;;;0.85;;
48881;SDS011;57063;51.406;-2.402;2023-08-07T15:33:30;4.13;;;0.65;;
48881;SDS011;57063;51.406;-2.402;2023-08-07T15:35:55;4.55;;;1.85;;
48881;SDS011;57063;51.406;-2.402;2023-08-07T15:38:21;2.53;;;0.60;;
48881;SDS011;57063;51.406;-2.402;2023-08-07T15:40:46;5.43;;;0.90;;
48881;SDS011;57063;51.406;-2.402;2023-08-07T15:43:12;7.00;;;0.80;;
48881;SDS011;57063;51.406;-2.402;2023-08-07T15:45:37;2.35;;;0.60;;
48881;SDS011;57063;51.406;-2.402;2023-08-07T15:48:05;2.30;;;0.60;;
48881;SDS011;57063;51.406;-2.402;2023-08-07T15:50:31;4.82;;;1.58;;
48881;SDS011;57063;51.406;-2.402;2023-08-07T15:53:01;6.85;;;0.85;;
48881;SDS011;57063;51.406;-2.402;2023-08-07T15:55:27;2.47;;;0.65;;
48881;SDS011;57063;51.406;-2.402;2023-08-07T15:57:53;2.90;;;0.85;;
48881;SDS011;57063;51.406;-2.402;2023-08-07T16:00:34;4.13;;;1.67;;
48881;SDS011;57063;51.406;-2.402;2023-08-07T16:03:06;4.13;;;0.75;;
48881;SDS011;57063;51.406;-2.402;2023-08-07T16:05:33;2.92;;;1.08;;
48881;SDS011;57063;51.406;-2.402;2023-08-07T16:08:01;3.70;;;0.90;;
48881;SDS011;57063;51.406;-2.402;2023-08-07T16:10:27;5.97;;;1.13;;
48881;SDS011;57063;51.406;-2.402;2023-08-07T16:12:53;1.10;;;0.47;;
48881;SDS011;57063;51.406;-2.402;2023-08-07T16:15:19;1.55;;;0.50;;
48881;SDS011;57063;51.406;-2.402;2023-08-07T16:17:50;3.85;;;1.13;;
48881;SDS011;57063;51.406;-2.402;2023-08-07T16:20:16;3.83;;;0.90;;
48881;SDS011;57063;51.406;-2.402;2023-08-07T16:22:48;4.65;;;0.70;;
48881;SDS011;57063;51.406;-2.402;2023-08-07T16:25:15;8.67;;;1.03;;
48881;SDS011;57063;51.406;-2.402;2023-08-07T16:27:41;2.25;;;0.45;;
48881;SDS011;57063;51.406;-2.402;2023-08-07T16:30:06;4.90;;;0.60;;
48881;SDS011;57063;51.406;-2.402;2023-08-07T16:32:34;2.08;;;0.82;;
48881;SDS011;57063;51.406;-2.402;2023-08-07T16:35:01;3.30;;;1.20;;
48881;SDS011;57063;51.406;-2.402;2023-08-07T16:37:28;3.65;;;0.82;;
48881;SDS011;57063;51.406;-2.402;2023-08-07T16:39:54;3.28;;;0.73;;
48881;SDS011;57063;51.406;-2.402;2023-08-07T16:42:21;3.30;;;0.60;;
48881;SDS011;57063;51.406;-2.402;2023-08-07T16:44:47;2.75;;;0.75;;
48881;SDS011;57063;51.406;-2.402;2023-08-07T16:47:13;4.07;;;0.60;;
48881;SDS011;57063;51.406;-2.402;2023-08-07T16:49:38;4.22;;;0.90;;
48881;SDS011;57063;51.406;-2.402;2023-08-07T16:52:04;3.85;;;0.98;;
48881;SDS011;57063;51.406;-2.402;2023-08-07T16:54:32;2.95;;;0.60;;
48881;SDS011;57063;51.406;-2.402;2023-08-07T16:56:58;4.72;;;0.80;;
48881;SDS011;57063;51.406;-2.402;2023-08-07T16:59:23;2.58;;;0.85;;
48881;SDS011;57063;51.406;-2.402;2023-08-07T17:01:49;3.35;;;0.65;;
48881;SDS011;57063;51.406;-2.402;2023-08-07T17:04:14;2.83;;;0.80;;
48881;SDS011;57063;51.406;-2.402;2023-08-07T17:06:40;4.45;;;0.88;;
48881;SDS011;57063;51.406;-2.402;2023-08-07T17:09:05;4.10;;;0.82;;
48881;SDS011;57063;51.406;-2.402;2023-08-07T17:11:31;2.90;;;1.02;;
48881;SDS011;57063;51.406;-2.402;2023-08-07T17:13:57;6.35;;;1.15;;
48881;SDS011;57063;51.406;-2.402;2023-08-07T17:16:30;5.88;;;1.35;;
48881;SDS011;57063;51.406;-2.402;2023-08-07T17:18:56;3.50;;;0.85;;
48881;SDS011;57063;51.406;-2.402;2023-08-07T17:21:21;1.63;;;0.77;;
48881;SDS011;57063;51.406;-2.402;2023-08-07T17:23:49;1.92;;;0.70;;
48881;SDS011;57063;51.406;-2.402;2023-08-07T17:26:23;3.20;;;0.88;;
48881;SDS011;57063;51.406;-2.402;2023-08-07T17:28:49;5.45;;;1.08;;
48881;SDS011;57063;51.406;-2.402;2023-08-07T17:31:21;1.45;;;0.65;;
48881;SDS011;57063;51.406;-2.402;2023-08-07T17:33:47;3.95;;;0.80;;
48881;SDS011;57063;51.406;-2.402;2023-08-07T17:36:12;4.53;;;0.73;;
48881;SDS011;57063;51.406;-2.402;2023-08-07T17:38:37;5.18;;;0.70;;
48881;SDS011;57063;51.406;-2.402;2023-08-07T17:41:03;1.60;;;0.75;;
48881;SDS011;57063;51.406;-2.402;2023-08-07T17:43:28;3.85;;;0.85;;
48881;SDS011;57063;51.406;-2.402;2023-08-07T17:45:54;2.10;;;0.60;;